sensor_id;sensor_type;location;lat;lon;timestamp;P1;durP1;ratioP1;P2;durP2;ratioP2
51248;SDS011;39642;47.556;18.728;2022-07-15T00:02:25;5.62;;;1.90;;
51248;SDS011;39642;47.556;18.728;2022-07-15T00:04:51;7.47;;;1.90;;
51248;SDS011;39642;47.556;18.728;2022-07-15T00:07:17;8.07;;;1.90;;
51248;SDS011;39642;47.556;18.728;2022-07-15T00:09:43;7.47;;;1.98;;
51248;SDS011;39642;47.556;18.728;2022-07-15T00:12:27;5.95;;;1.90;;
51248;SDS011;39642;47.556;18.728;2022-07-15T00:14:53;5.78;;;1.70;;
51248;SDS011;39642;47.556;18.728;2022-07-15T00:17:19;4.82;;;1.83;;
51248;SDS011;39642;47.556;18.728;2022-07-15T00:20:05;5.00;;;1.83;;
51248;SDS011;39642;47.556;18.728;2022-07-15T00:22:32;6.32;;;1.85;;
51248;SDS011;39642;47.556;18.728;2022-07-15T00:24:58;6.07;;;1.80;;
51248;SDS011;39642;47.556;18.728;2022-07-15T00:27:24;6.85;;;1.92;;
51248;SDS011;39642;47.556;18.728;2022-07-15T00:32:36;7.05;;;1.90;;
51248;SDS011;39642;47.556;18.728;2022-07-15T00:35:02;6.32;;;1.80;;
51248;SDS011;39642;47.556;18.728;2022-07-15T00:37:28;5.95;;;1.90;;
51248;SDS011;39642;47.556;18.728;2022-07-15T00:39:54;5.30;;;1.73;;
51248;SDS011;39642;47.556;18.728;2022-07-15T00:42:19;5.65;;;1.90;;
51248;SDS011;39642;47.556;18.728;2022-07-15T00:45:04;6.62;;;1.85;;
51248;SDS011;39642;47.556;18.728;2022-07-15T00:47:30;6.50;;;1.83;;
51248;SDS011;39642;47.556;18.728;2022-07-15T00:49:56;6.47;;;1.90;;
51248;SDS011;39642;47.556;18.728;2022-07-15T00:52:22;7.12;;;1.80;;
51248;SDS011;39642;47.556;18.728;2022-07-15T00:54:50;7.45;;;2.22;;
51248;SDS011;39642;47.556;18.728;2022-07-15T00:57:16;8.40;;;2.00;;
51248;SDS011;39642;47.556;18.728;2022-07-15T00:59:43;5.40;;;1.85;;
51248;SDS011;39642;47.556;18.728;2022-07-15T01:02:11;5.85;;;1.80;;
51248;SDS011;39642;47.556;18.728;2022-07-15T01:04:39;7.85;;;2.10;;
51248;SDS011;39642;47.556;18.728;2022-07-15T01:07:06;6.53;;;1.92;;
51248;SDS011;39642;47.556;18.728;2022-07-15T01:09:31;5.43;;;1.80;;
51248;SDS011;39642;47.556;18.728;2022-07-15T01:11:57;6.07;;;1.80;;
51248;SDS011;39642;47.556;18.728;2022-07-15T01:14:24;6.30;;;2.00;;
51248;SDS011;39642;47.556;18.728;2022-07-15T01:16:50;6.62;;;2.10;;
51248;SDS011;39642;47.556;18.728;2022-07-15T01:19:16;7.60;;;1.90;;
51248;SDS011;39642;47.556;18.728;2022-07-15T01:21:42;6.82;;;1.90;;
51248;SDS011;39642;47.556;18.728;2022-07-15T01:24:09;6.70;;;1.90;;
51248;SDS011;39642;47.556;18.728;2022-07-15T01:26:35;6.07;;;2.15;;
51248;SDS011;39642;47.556;18.728;2022-07-15T01:29:00;4.70;;;1.80;;
51248;SDS011;39642;47.556;18.728;2022-07-15T01:31:26;6.47;;;1.80;;
51248;SDS011;39642;47.556;18.728;2022-07-15T01:34:13;5.78;;;1.80;;
51248;SDS011;39642;47.556;18.728;2022-07-15T01:36:38;6.12;;;1.77;;
51248;SDS011;39642;47.556;18.728;2022-07-15T01:39:04;6.93;;;2.08;;
51248;SDS011;39642;47.556;18.728;2022-07-15T01:41:30;6.90;;;2.10;;
51248;SDS011;39642;47.556;18.728;2022-07-15T01:43:56;7.22;;;2.08;;
51248;SDS011;39642;47.556;18.728;2022-07-15T01:46:22;9.13;;;2.10;;
51248;SDS011;39642;47.556;18.728;2022-07-15T01:48:49;6.53;;;2.00;;
51248;SDS011;39642;47.556;18.728;2022-07-15T01:51:34;6.78;;;1.90;;
51248;SDS011;39642;47.556;18.728;2022-07-15T01:54:00;8.05;;;2.15;;
51248;SDS011;39642;47.556;18.728;2022-07-15T01:56:26;6.65;;;2.00;;
51248;SDS011;39642;47.556;18.728;2022-07-15T01:58:52;5.97;;;1.92;;
51248;SDS011;39642;47.556;18.728;2022-07-15T02:01:17;8.48;;;2.03;;
51248;SDS011;39642;47.556;18.728;2022-07-15T02:03:44;6.45;;;1.80;;
51248;SDS011;39642;47.556;18.728;2022-07-15T02:06:10;6.10;;;1.90;;
51248;SDS011;39642;47.556;18.728;2022-07-15T02:08:36;6.97;;;2.10;;
51248;SDS011;39642;47.556;18.728;2022-07-15T02:11:02;7.12;;;2.25;;
51248;SDS011;39642;47.556;18.728;2022-07-15T02:13:48;7.90;;;2.05;;
51248;SDS011;39642;47.556;18.728;2022-07-15T02:16:14;6.55;;;2.00;;
51248;SDS011;39642;47.556;18.728;2022-07-15T02:18:40;6.43;;;1.95;;
51248;SDS011;39642;47.556;18.728;2022-07-15T02:21:06;6.40;;;1.95;;
51248;SDS011;39642;47.556;18.728;2022-07-15T02:23:32;6.18;;;1.98;;
51248;SDS011;39642;47.556;18.728;2022-07-15T02:25:58;6.65;;;2.12;;
51248;SDS011;39642;47.556;18.728;2022-07-15T02:28:24;6.40;;;2.00;;
51248;SDS011;39642;47.556;18.728;2022-07-15T02:31:10;6.87;;;2.03;;
51248;SDS011;39642;47.556;18.728;2022-07-15T02:33:37;6.07;;;2.00;;
51248;SDS011;39642;47.556;18.728;2022-07-15T02:36:04;5.95;;;2.10;;
51248;SDS011;39642;47.556;18.728;2022-07-15T02:38:30;8.85;;;2.20;;
51248;SDS011;39642;47.556;18.728;2022-07-15T02:40:56;6.90;;;2.28;;
51248;SDS011;39642;47.556;18.728;2022-07-15T02:43:22;7.10;;;2.20;;
51248;SDS011;39642;47.556;18.728;2022-07-15T02:45:48;6.55;;;2.10;;
51248;SDS011;39642;47.556;18.728;2022-07-15T02:48:14;5.60;;;2.00;;
51248;SDS011;39642;47.556;18.728;2022-07-15T02:50:41;5.85;;;1.90;;
51248;SDS011;39642;47.556;18.728;2022-07-15T02:53:07;6.30;;;2.00;;
51248;SDS011;39642;47.556;18.728;2022-07-15T02:55:33;6.43;;;1.95;;
51248;SDS011;39642;47.556;18.728;2022-07-15T02:57:59;5.55;;;1.85;;
51248;SDS011;39642;47.556;18.728;2022-07-15T03:00:25;5.87;;;1.90;;
51248;SDS011;39642;47.556;18.728;2022-07-15T03:02:51;6.40;;;1.95;;
51248;SDS011;39642;47.556;18.728;2022-07-15T03:05:17;5.97;;;2.10;;
51248;SDS011;39642;47.556;18.728;2022-07-15T03:07:44;5.25;;;1.90;;
51248;SDS011;39642;47.556;18.728;2022-07-15T03:10:11;6.95;;;2.03;;
51248;SDS011;39642;47.556;18.728;2022-07-15T03:12:37;6.82;;;2.00;;
51248;SDS011;39642;47.556;18.728;2022-07-15T03:15:23;5.90;;;1.77;;
51248;SDS011;39642;47.556;18.728;2022-07-15T03:17:49;6.03;;;1.80;;
51248;SDS011;39642;47.556;18.728;2022-07-15T03:20:15;5.30;;;1.90;;
51248;SDS011;39642;47.556;18.728;2022-07-15T03:22:41;6.18;;;2.00;;
51248;SDS011;39642;47.556;18.728;2022-07-15T03:25:07;5.93;;;2.00;;
51248;SDS011;39642;47.556;18.728;2022-07-15T03:27:33;6.12;;;1.98;;
51248;SDS011;39642;47.556;18.728;2022-07-15T03:29:59;7.00;;;2.10;;
51248;SDS011;39642;47.556;18.728;2022-07-15T03:32:47;5.60;;;1.95;;
51248;SDS011;39642;47.556;18.728;2022-07-15T03:35:13;7.28;;;1.98;;
51248;SDS011;39642;47.556;18.728;2022-07-15T03:37:39;5.47;;;1.87;;
51248;SDS011;39642;47.556;18.728;2022-07-15T03:40:25;6.10;;;1.90;;
51248;SDS011;39642;47.556;18.728;2022-07-15T03:45:37;5.68;;;1.90;;
51248;SDS011;39642;47.556;18.728;2022-07-15T03:48:03;5.45;;;1.75;;
51248;SDS011;39642;47.556;18.728;2022-07-15T03:50:29;6.80;;;2.08;;
51248;SDS011;39642;47.556;18.728;2022-07-15T03:52:55;8.40;;;2.08;;
51248;SDS011;39642;47.556;18.728;2022-07-15T03:55:21;5.78;;;1.92;;
51248;SDS011;39642;47.556;18.728;2022-07-15T03:58:07;5.93;;;1.90;;
51248;SDS011;39642;47.556;18.728;2022-07-15T04:00:33;5.62;;;1.90;;
51248;SDS011;39642;47.556;18.728;2022-07-15T04:02:59;6.65;;;1.80;;
51248;SDS011;39642;47.556;18.728;2022-07-15T04:05:24;6.37;;;1.90;;
51248;SDS011;39642;47.556;18.728;2022-07-15T04:07:50;4.85;;;1.77;;
51248;SDS011;39642;47.556;18.728;2022-07-15T04:10:16;5.07;;;1.73;;
51248;SDS011;39642;47.556;18.728;2022-07-15T04:13:03;6.93;;;1.92;;
51248;SDS011;39642;47.556;18.728;2022-07-15T04:15:29;5.93;;;1.90;;
51248;SDS011;39642;47.556;18.728;2022-07-15T04:17:55;5.35;;;1.70;;
51248;SDS011;39642;47.556;18.728;2022-07-15T04:20:24;6.22;;;1.83;;
51248;SDS011;39642;47.556;18.728;2022-07-15T04:22:51;4.90;;;1.65;;
51248;SDS011;39642;47.556;18.728;2022-07-15T04:25:18;5.43;;;1.83;;
51248;SDS011;39642;47.556;18.728;2022-07-15T04:27:45;4.55;;;1.73;;
51248;SDS011;39642;47.556;18.728;2022-07-15T04:30:13;6.47;;;1.80;;
51248;SDS011;39642;47.556;18.728;2022-07-15T04:32:40;6.35;;;2.00;;
51248;SDS011;39642;47.556;18.728;2022-07-15T04:35:06;5.30;;;1.80;;
51248;SDS011;39642;47.556;18.728;2022-07-15T04:37:32;5.62;;;1.73;;
51248;SDS011;39642;47.556;18.728;2022-07-15T04:39:58;7.07;;;1.98;;
51248;SDS011;39642;47.556;18.728;2022-07-15T04:42:24;5.55;;;1.90;;
51248;SDS011;39642;47.556;18.728;2022-07-15T04:44:51;5.80;;;1.87;;
51248;SDS011;39642;47.556;18.728;2022-07-15T04:47:17;5.15;;;1.75;;
51248;SDS011;39642;47.556;18.728;2022-07-15T04:49:42;5.70;;;1.87;;
51248;SDS011;39642;47.556;18.728;2022-07-15T04:52:47;6.10;;;2.00;;
51248;SDS011;39642;47.556;18.728;2022-07-15T04:55:14;5.68;;;1.70;;
51248;SDS011;39642;47.556;18.728;2022-07-15T04:57:40;5.05;;;1.80;;
51248;SDS011;39642;47.556;18.728;2022-07-15T05:00:07;6.43;;;1.80;;
51248;SDS011;39642;47.556;18.728;2022-07-15T05:02:34;5.95;;;1.70;;
51248;SDS011;39642;47.556;18.728;2022-07-15T05:05:00;5.18;;;1.70;;
51248;SDS011;39642;47.556;18.728;2022-07-15T05:07:26;6.35;;;1.90;;
51248;SDS011;39642;47.556;18.728;2022-07-15T05:09:52;4.25;;;1.70;;
51248;SDS011;39642;47.556;18.728;2022-07-15T05:12:18;6.87;;;1.80;;
51248;SDS011;39642;47.556;18.728;2022-07-15T05:15:04;5.87;;;1.77;;
51248;SDS011;39642;47.556;18.728;2022-07-15T05:17:31;4.28;;;1.70;;
51248;SDS011;39642;47.556;18.728;2022-07-15T05:19:57;6.72;;;1.90;;
51248;SDS011;39642;47.556;18.728;2022-07-15T05:22:23;4.85;;;1.65;;
51248;SDS011;39642;47.556;18.728;2022-07-15T05:24:49;7.40;;;1.90;;
51248;SDS011;39642;47.556;18.728;2022-07-15T05:27:15;4.07;;;1.60;;
51248;SDS011;39642;47.556;18.728;2022-07-15T05:29:41;4.97;;;1.70;;
51248;SDS011;39642;47.556;18.728;2022-07-15T05:32:07;6.47;;;1.80;;
51248;SDS011;39642;47.556;18.728;2022-07-15T05:34:33;6.10;;;1.80;;
51248;SDS011;39642;47.556;18.728;2022-07-15T05:36:58;4.55;;;1.70;;
51248;SDS011;39642;47.556;18.728;2022-07-15T05:39:25;5.70;;;1.90;;
51248;SDS011;39642;47.556;18.728;2022-07-15T05:41:50;6.60;;;1.85;;
51248;SDS011;39642;47.556;18.728;2022-07-15T05:44:16;5.35;;;1.65;;
51248;SDS011;39642;47.556;18.728;2022-07-15T05:46:42;5.20;;;1.70;;
51248;SDS011;39642;47.556;18.728;2022-07-15T05:49:08;6.18;;;1.90;;
51248;SDS011;39642;47.556;18.728;2022-07-15T05:51:36;9.10;;;2.00;;
51248;SDS011;39642;47.556;18.728;2022-07-15T05:54:02;6.07;;;1.80;;
51248;SDS011;39642;47.556;18.728;2022-07-15T05:56:28;5.65;;;1.90;;
51248;SDS011;39642;47.556;18.728;2022-07-15T05:58:54;5.93;;;1.85;;
51248;SDS011;39642;47.556;18.728;2022-07-15T06:01:21;5.28;;;1.60;;
51248;SDS011;39642;47.556;18.728;2022-07-15T06:03:49;5.07;;;1.80;;
51248;SDS011;39642;47.556;18.728;2022-07-15T06:06:15;4.70;;;1.62;;
51248;SDS011;39642;47.556;18.728;2022-07-15T06:08:42;5.20;;;1.80;;
51248;SDS011;39642;47.556;18.728;2022-07-15T06:11:09;5.80;;;1.80;;
51248;SDS011;39642;47.556;18.728;2022-07-15T06:13:37;6.07;;;1.87;;
51248;SDS011;39642;47.556;18.728;2022-07-15T06:16:04;5.87;;;1.80;;
51248;SDS011;39642;47.556;18.728;2022-07-15T06:18:32;4.40;;;1.60;;
51248;SDS011;39642;47.556;18.728;2022-07-15T06:20:57;6.62;;;1.90;;
51248;SDS011;39642;47.556;18.728;2022-07-15T06:23:23;5.85;;;1.80;;
51248;SDS011;39642;47.556;18.728;2022-07-15T06:25:49;5.70;;;1.75;;
51248;SDS011;39642;47.556;18.728;2022-07-15T06:28:15;5.82;;;1.90;;
51248;SDS011;39642;47.556;18.728;2022-07-15T06:30:41;5.03;;;1.70;;
51248;SDS011;39642;47.556;18.728;2022-07-15T06:33:27;5.15;;;1.70;;
51248;SDS011;39642;47.556;18.728;2022-07-15T06:35:53;5.87;;;1.73;;
51248;SDS011;39642;47.556;18.728;2022-07-15T06:38:20;7.10;;;1.90;;
51248;SDS011;39642;47.556;18.728;2022-07-15T06:41:06;7.75;;;1.90;;
51248;SDS011;39642;47.556;18.728;2022-07-15T06:43:32;5.55;;;1.70;;
51248;SDS011;39642;47.556;18.728;2022-07-15T06:45:58;4.85;;;1.77;;
51248;SDS011;39642;47.556;18.728;2022-07-15T06:48:24;5.47;;;1.70;;
51248;SDS011;39642;47.556;18.728;2022-07-15T06:50:50;5.18;;;1.70;;
51248;SDS011;39642;47.556;18.728;2022-07-15T06:53:15;5.07;;;1.70;;
51248;SDS011;39642;47.556;18.728;2022-07-15T06:55:41;4.95;;;1.80;;
51248;SDS011;39642;47.556;18.728;2022-07-15T06:58:07;5.20;;;1.60;;
51248;SDS011;39642;47.556;18.728;2022-07-15T07:00:33;5.40;;;2.00;;
51248;SDS011;39642;47.556;18.728;2022-07-15T07:02:59;5.07;;;1.80;;
51248;SDS011;39642;47.556;18.728;2022-07-15T07:05:25;5.87;;;2.00;;
51248;SDS011;39642;47.556;18.728;2022-07-15T07:07:51;5.78;;;1.87;;
51248;SDS011;39642;47.556;18.728;2022-07-15T07:10:17;5.93;;;1.80;;
51248;SDS011;39642;47.556;18.728;2022-07-15T07:12:43;7.07;;;1.90;;
51248;SDS011;39642;47.556;18.728;2022-07-15T07:15:08;4.82;;;1.80;;
51248;SDS011;39642;47.556;18.728;2022-07-15T07:17:35;5.25;;;1.70;;
51248;SDS011;39642;47.556;18.728;2022-07-15T07:20:01;4.82;;;1.75;;
51248;SDS011;39642;47.556;18.728;2022-07-15T07:22:27;5.57;;;1.98;;
51248;SDS011;39642;47.556;18.728;2022-07-15T07:24:53;4.70;;;1.75;;
51248;SDS011;39642;47.556;18.728;2022-07-15T07:27:38;5.75;;;1.80;;
51248;SDS011;39642;47.556;18.728;2022-07-15T07:30:05;7.50;;;1.83;;
51248;SDS011;39642;47.556;18.728;2022-07-15T07:32:31;6.72;;;1.85;;
51248;SDS011;39642;47.556;18.728;2022-07-15T07:34:57;5.70;;;1.90;;
51248;SDS011;39642;47.556;18.728;2022-07-15T07:37:44;7.57;;;2.05;;
51248;SDS011;39642;47.556;18.728;2022-07-15T07:40:10;5.55;;;1.90;;
51248;SDS011;39642;47.556;18.728;2022-07-15T07:42:36;6.10;;;1.98;;
51248;SDS011;39642;47.556;18.728;2022-07-15T07:45:02;7.28;;;1.95;;
51248;SDS011;39642;47.556;18.728;2022-07-15T07:47:28;4.90;;;1.80;;
51248;SDS011;39642;47.556;18.728;2022-07-15T07:49:54;7.85;;;1.90;;
51248;SDS011;39642;47.556;18.728;2022-07-15T07:52:20;5.45;;;1.80;;
51248;SDS011;39642;47.556;18.728;2022-07-15T07:54:46;6.25;;;1.80;;
51248;SDS011;39642;47.556;18.728;2022-07-15T07:57:12;5.68;;;1.87;;
51248;SDS011;39642;47.556;18.728;2022-07-15T07:59:38;6.78;;;2.00;;
51248;SDS011;39642;47.556;18.728;2022-07-15T08:02:04;6.55;;;2.08;;
51248;SDS011;39642;47.556;18.728;2022-07-15T08:04:30;6.60;;;1.95;;
51248;SDS011;39642;47.556;18.728;2022-07-15T08:06:56;6.85;;;1.90;;
51248;SDS011;39642;47.556;18.728;2022-07-15T08:09:22;6.40;;;2.10;;
51248;SDS011;39642;47.556;18.728;2022-07-15T08:11:48;7.18;;;2.00;;
51248;SDS011;39642;47.556;18.728;2022-07-15T08:14:14;5.65;;;1.90;;
51248;SDS011;39642;47.556;18.728;2022-07-15T08:16:40;6.57;;;2.10;;
51248;SDS011;39642;47.556;18.728;2022-07-15T08:19:08;6.70;;;2.15;;
51248;SDS011;39642;47.556;18.728;2022-07-15T08:21:34;5.47;;;1.85;;
51248;SDS011;39642;47.556;18.728;2022-07-15T08:24:00;7.28;;;2.00;;
51248;SDS011;39642;47.556;18.728;2022-07-15T08:26:26;6.50;;;1.90;;
51248;SDS011;39642;47.556;18.728;2022-07-15T08:28:52;5.32;;;1.80;;
51248;SDS011;39642;47.556;18.728;2022-07-15T08:31:18;5.82;;;1.83;;
51248;SDS011;39642;47.556;18.728;2022-07-15T08:33:45;6.90;;;2.28;;
51248;SDS011;39642;47.556;18.728;2022-07-15T08:36:11;7.70;;;2.00;;
51248;SDS011;39642;47.556;18.728;2022-07-15T08:38:37;5.05;;;1.80;;
51248;SDS011;39642;47.556;18.728;2022-07-15T08:41:05;5.90;;;1.98;;
51248;SDS011;39642;47.556;18.728;2022-07-15T08:43:31;6.62;;;2.00;;
51248;SDS011;39642;47.556;18.728;2022-07-15T08:45:58;6.32;;;2.00;;
51248;SDS011;39642;47.556;18.728;2022-07-15T08:48:27;5.87;;;2.05;;
51248;SDS011;39642;47.556;18.728;2022-07-15T08:50:58;6.68;;;2.10;;
51248;SDS011;39642;47.556;18.728;2022-07-15T08:53:27;5.50;;;1.90;;
51248;SDS011;39642;47.556;18.728;2022-07-15T08:55:56;6.75;;;2.00;;
51248;SDS011;39642;47.556;18.728;2022-07-15T08:58:22;7.97;;;2.12;;
51248;SDS011;39642;47.556;18.728;2022-07-15T09:00:49;6.82;;;2.10;;
51248;SDS011;39642;47.556;18.728;2022-07-15T09:03:15;7.60;;;2.20;;
51248;SDS011;39642;47.556;18.728;2022-07-15T09:05:41;6.85;;;2.33;;
51248;SDS011;39642;47.556;18.728;2022-07-15T09:08:11;7.72;;;2.28;;
51248;SDS011;39642;47.556;18.728;2022-07-15T09:13:10;6.25;;;2.20;;
51248;SDS011;39642;47.556;18.728;2022-07-15T09:15:38;6.12;;;2.00;;
51248;SDS011;39642;47.556;18.728;2022-07-15T09:18:07;6.57;;;2.08;;
51248;SDS011;39642;47.556;18.728;2022-07-15T09:21:17;6.57;;;2.00;;
51248;SDS011;39642;47.556;18.728;2022-07-15T09:23:44;7.10;;;2.40;;
51248;SDS011;39642;47.556;18.728;2022-07-15T09:28:48;7.80;;;2.45;;
51248;SDS011;39642;47.556;18.728;2022-07-15T09:34:39;7.80;;;2.20;;
51248;SDS011;39642;47.556;18.728;2022-07-15T09:37:24;8.85;;;2.50;;
51248;SDS011;39642;47.556;18.728;2022-07-15T09:39:54;8.05;;;2.62;;
51248;SDS011;39642;47.556;18.728;2022-07-15T09:42:26;8.68;;;2.40;;
51248;SDS011;39642;47.556;18.728;2022-07-15T09:44:52;8.25;;;2.40;;
51248;SDS011;39642;47.556;18.728;2022-07-15T09:47:18;6.65;;;2.30;;
51248;SDS011;39642;47.556;18.728;2022-07-15T09:49:45;7.65;;;2.15;;
51248;SDS011;39642;47.556;18.728;2022-07-15T09:52:12;7.95;;;2.30;;
51248;SDS011;39642;47.556;18.728;2022-07-15T09:54:41;7.50;;;2.50;;
51248;SDS011;39642;47.556;18.728;2022-07-15T09:57:10;7.62;;;2.40;;
51248;SDS011;39642;47.556;18.728;2022-07-15T09:59:43;7.35;;;2.40;;
51248;SDS011;39642;47.556;18.728;2022-07-15T10:02:10;6.90;;;2.12;;
51248;SDS011;39642;47.556;18.728;2022-07-15T10:04:37;7.20;;;2.28;;
51248;SDS011;39642;47.556;18.728;2022-07-15T10:09:51;8.73;;;2.47;;
51248;SDS011;39642;47.556;18.728;2022-07-15T10:12:19;8.27;;;2.60;;
51248;SDS011;39642;47.556;18.728;2022-07-15T10:17:39;6.62;;;2.30;;
51248;SDS011;39642;47.556;18.728;2022-07-15T10:29:09;7.45;;;2.28;;
51248;SDS011;39642;47.556;18.728;2022-07-15T10:31:38;7.05;;;2.37;;
51248;SDS011;39642;47.556;18.728;2022-07-15T10:39:19;8.75;;;2.72;;
51248;SDS011;39642;47.556;18.728;2022-07-15T10:42:06;7.65;;;2.20;;
51248;SDS011;39642;47.556;18.728;2022-07-15T10:44:33;8.75;;;2.50;;
51248;SDS011;39642;47.556;18.728;2022-07-15T10:49:37;7.18;;;2.28;;
51248;SDS011;39642;47.556;18.728;2022-07-15T10:57:20;6.53;;;2.28;;
51248;SDS011;39642;47.556;18.728;2022-07-15T11:03:01;6.70;;;2.30;;
51248;SDS011;39642;47.556;18.728;2022-07-15T11:05:30;7.30;;;2.22;;
51248;SDS011;39642;47.556;18.728;2022-07-15T11:11:00;8.50;;;2.30;;
51248;SDS011;39642;47.556;18.728;2022-07-15T11:13:44;7.22;;;2.40;;
51248;SDS011;39642;47.556;18.728;2022-07-15T11:16:12;7.47;;;2.45;;
51248;SDS011;39642;47.556;18.728;2022-07-15T11:18:45;6.72;;;2.22;;
51248;SDS011;39642;47.556;18.728;2022-07-15T11:21:11;7.00;;;2.30;;
51248;SDS011;39642;47.556;18.728;2022-07-15T11:23:38;7.50;;;2.40;;
51248;SDS011;39642;47.556;18.728;2022-07-15T11:26:03;7.37;;;2.37;;
51248;SDS011;39642;47.556;18.728;2022-07-15T11:28:30;7.25;;;2.28;;
51248;SDS011;39642;47.556;18.728;2022-07-15T11:30:56;8.80;;;2.40;;
51248;SDS011;39642;47.556;18.728;2022-07-15T11:33:23;8.02;;;2.50;;
51248;SDS011;39642;47.556;18.728;2022-07-15T11:35:56;6.43;;;2.28;;
51248;SDS011;39642;47.556;18.728;2022-07-15T11:38:24;7.03;;;2.40;;
51248;SDS011;39642;47.556;18.728;2022-07-15T11:40:54;7.90;;;2.50;;
51248;SDS011;39642;47.556;18.728;2022-07-15T11:44:03;8.10;;;2.30;;
51248;SDS011;39642;47.556;18.728;2022-07-15T11:46:50;8.90;;;2.30;;
51248;SDS011;39642;47.556;18.728;2022-07-15T11:51:55;7.50;;;2.42;;
51248;SDS011;39642;47.556;18.728;2022-07-15T11:54:48;7.82;;;2.28;;
51248;SDS011;39642;47.556;18.728;2022-07-15T11:57:14;8.27;;;2.40;;
51248;SDS011;39642;47.556;18.728;2022-07-15T11:59:40;7.12;;;2.45;;
51248;SDS011;39642;47.556;18.728;2022-07-15T12:02:17;8.05;;;2.30;;
51248;SDS011;39642;47.556;18.728;2022-07-15T12:04:44;7.40;;;2.30;;
51248;SDS011;39642;47.556;18.728;2022-07-15T12:10:10;7.80;;;2.50;;
51248;SDS011;39642;47.556;18.728;2022-07-15T12:12:41;6.82;;;2.33;;
51248;SDS011;39642;47.556;18.728;2022-07-15T12:15:08;11.90;;;3.40;;
51248;SDS011;39642;47.556;18.728;2022-07-15T12:17:34;10.48;;;4.25;;
51248;SDS011;39642;47.556;18.728;2022-07-15T12:20:00;8.05;;;2.78;;
51248;SDS011;39642;47.556;18.728;2022-07-15T12:22:29;8.75;;;2.60;;
51248;SDS011;39642;47.556;18.728;2022-07-15T12:24:54;7.75;;;2.78;;
51248;SDS011;39642;47.556;18.728;2022-07-15T12:27:33;8.90;;;2.70;;
51248;SDS011;39642;47.556;18.728;2022-07-15T12:30:02;9.52;;;2.90;;
51248;SDS011;39642;47.556;18.728;2022-07-15T12:32:29;9.35;;;3.25;;
51248;SDS011;39642;47.556;18.728;2022-07-15T12:34:57;9.38;;;3.10;;
51248;SDS011;39642;47.556;18.728;2022-07-15T12:40:17;9.55;;;3.70;;
51248;SDS011;39642;47.556;18.728;2022-07-15T12:42:47;10.77;;;4.18;;
51248;SDS011;39642;47.556;18.728;2022-07-15T12:47:56;9.98;;;3.70;;
51248;SDS011;39642;47.556;18.728;2022-07-15T12:50:30;11.07;;;3.80;;
51248;SDS011;39642;47.556;18.728;2022-07-15T12:53:17;10.25;;;4.10;;
51248;SDS011;39642;47.556;18.728;2022-07-15T12:55:46;10.05;;;3.87;;
51248;SDS011;39642;47.556;18.728;2022-07-15T12:58:33;10.95;;;4.20;;
51248;SDS011;39642;47.556;18.728;2022-07-15T13:01:08;10.18;;;4.00;;
51248;SDS011;39642;47.556;18.728;2022-07-15T13:03:35;10.48;;;3.92;;
51248;SDS011;39642;47.556;18.728;2022-07-15T13:06:02;9.85;;;3.83;;
51248;SDS011;39642;47.556;18.728;2022-07-15T13:08:30;9.43;;;3.67;;
51248;SDS011;39642;47.556;18.728;2022-07-15T13:11:00;10.35;;;3.83;;
51248;SDS011;39642;47.556;18.728;2022-07-15T13:13:28;10.85;;;4.05;;
51248;SDS011;39642;47.556;18.728;2022-07-15T13:15:57;9.57;;;3.60;;
51248;SDS011;39642;47.556;18.728;2022-07-15T13:18:27;10.65;;;3.62;;
51248;SDS011;39642;47.556;18.728;2022-07-15T13:20:54;10.27;;;3.75;;
51248;SDS011;39642;47.556;18.728;2022-07-15T13:23:21;8.85;;;3.50;;
51248;SDS011;39642;47.556;18.728;2022-07-15T13:25:48;10.52;;;3.60;;
51248;SDS011;39642;47.556;18.728;2022-07-15T13:28:16;9.82;;;3.78;;
51248;SDS011;39642;47.556;18.728;2022-07-15T13:30:42;9.85;;;3.47;;
51248;SDS011;39642;47.556;18.728;2022-07-15T13:33:28;10.32;;;3.55;;
51248;SDS011;39642;47.556;18.728;2022-07-15T13:36:14;8.52;;;2.92;;
51248;SDS011;39642;47.556;18.728;2022-07-15T13:38:40;9.55;;;3.28;;
51248;SDS011;39642;47.556;18.728;2022-07-15T13:41:06;9.18;;;3.15;;
51248;SDS011;39642;47.556;18.728;2022-07-15T13:43:32;9.02;;;3.10;;
51248;SDS011;39642;47.556;18.728;2022-07-15T13:45:58;10.60;;;3.20;;
51248;SDS011;39642;47.556;18.728;2022-07-15T13:48:24;9.70;;;2.80;;
51248;SDS011;39642;47.556;18.728;2022-07-15T13:50:50;8.57;;;3.00;;
51248;SDS011;39642;47.556;18.728;2022-07-15T13:53:34;9.90;;;2.87;;
51248;SDS011;39642;47.556;18.728;2022-07-15T13:56:20;9.32;;;2.72;;
51248;SDS011;39642;47.556;18.728;2022-07-15T13:58:46;9.85;;;3.00;;
51248;SDS011;39642;47.556;18.728;2022-07-15T14:01:14;9.52;;;3.20;;
51248;SDS011;39642;47.556;18.728;2022-07-15T14:03:41;10.05;;;3.20;;
51248;SDS011;39642;47.556;18.728;2022-07-15T14:06:07;10.15;;;2.80;;
51248;SDS011;39642;47.556;18.728;2022-07-15T14:08:33;10.02;;;2.95;;
51248;SDS011;39642;47.556;18.728;2022-07-15T14:11:20;9.15;;;2.70;;
51248;SDS011;39642;47.556;18.728;2022-07-15T14:13:45;8.90;;;2.70;;
51248;SDS011;39642;47.556;18.728;2022-07-15T14:16:11;10.18;;;3.10;;
51248;SDS011;39642;47.556;18.728;2022-07-15T14:18:37;8.93;;;2.60;;
51248;SDS011;39642;47.556;18.728;2022-07-15T14:21:11;9.23;;;2.67;;
51248;SDS011;39642;47.556;18.728;2022-07-15T14:23:58;7.97;;;2.47;;
51248;SDS011;39642;47.556;18.728;2022-07-15T14:26:24;7.87;;;2.50;;
51248;SDS011;39642;47.556;18.728;2022-07-15T14:28:50;8.65;;;2.53;;
51248;SDS011;39642;47.556;18.728;2022-07-15T14:31:56;8.25;;;2.33;;
51248;SDS011;39642;47.556;18.728;2022-07-15T14:34:22;8.95;;;2.70;;
51248;SDS011;39642;47.556;18.728;2022-07-15T14:36:48;7.82;;;2.30;;
51248;SDS011;39642;47.556;18.728;2022-07-15T14:39:14;7.57;;;2.40;;
51248;SDS011;39642;47.556;18.728;2022-07-15T14:42:00;8.57;;;2.50;;
51248;SDS011;39642;47.556;18.728;2022-07-15T14:44:26;8.55;;;2.55;;
51248;SDS011;39642;47.556;18.728;2022-07-15T14:46:52;8.40;;;2.35;;
51248;SDS011;39642;47.556;18.728;2022-07-15T14:49:18;7.15;;;2.45;;
51248;SDS011;39642;47.556;18.728;2022-07-15T14:51:44;7.82;;;2.40;;
51248;SDS011;39642;47.556;18.728;2022-07-15T14:54:09;8.15;;;2.45;;
51248;SDS011;39642;47.556;18.728;2022-07-15T14:56:35;8.52;;;2.60;;
51248;SDS011;39642;47.556;18.728;2022-07-15T14:59:01;8.10;;;2.37;;
51248;SDS011;39642;47.556;18.728;2022-07-15T15:01:28;10.15;;;2.70;;
51248;SDS011;39642;47.556;18.728;2022-07-15T15:03:54;9.00;;;2.65;;
51248;SDS011;39642;47.556;18.728;2022-07-15T15:06:20;10.90;;;2.80;;
51248;SDS011;39642;47.556;18.728;2022-07-15T15:08:46;8.88;;;3.05;;
51248;SDS011;39642;47.556;18.728;2022-07-15T15:11:12;9.35;;;2.80;;
51248;SDS011;39642;47.556;18.728;2022-07-15T15:13:38;8.80;;;3.00;;
51248;SDS011;39642;47.556;18.728;2022-07-15T15:16:03;9.77;;;3.05;;
51248;SDS011;39642;47.556;18.728;2022-07-15T15:18:30;10.40;;;3.50;;
51248;SDS011;39642;47.556;18.728;2022-07-15T15:20:55;10.02;;;3.03;;
51248;SDS011;39642;47.556;18.728;2022-07-15T15:23:21;9.93;;;3.33;;
51248;SDS011;39642;47.556;18.728;2022-07-15T15:25:47;9.13;;;3.58;;
51248;SDS011;39642;47.556;18.728;2022-07-15T15:28:32;9.95;;;3.40;;
51248;SDS011;39642;47.556;18.728;2022-07-15T15:30:58;10.77;;;3.78;;
51248;SDS011;39642;47.556;18.728;2022-07-15T15:33:24;10.95;;;3.83;;
51248;SDS011;39642;47.556;18.728;2022-07-15T15:35:49;10.18;;;3.70;;
51248;SDS011;39642;47.556;18.728;2022-07-15T15:38:15;9.77;;;3.50;;
51248;SDS011;39642;47.556;18.728;2022-07-15T15:40:41;11.02;;;3.67;;
51248;SDS011;39642;47.556;18.728;2022-07-15T15:43:07;9.63;;;3.53;;